Time;durP1;ratioP1;P1;durP2;ratioP2;P2;SDS_P1;SDS_P2;PMS_P1;PMS_P2;Temp;Humidity;BMP_temperature;BMP_pressure;BME280_temperature;BME280_humidity;BME280_pressure;Samples;Min_cycle;Max_cycle;Signal;HPM_P1;HPM_P2
2021/03/05 00:00:50;;;;;;;92.50;43.20;;;;;;;5.69;63.32;97266.88;5114488;27;20023;-84
2021/03/05 00:03:16;;;;;;;77.47;35.33;;;;;;;5.66;64.47;97271.50;5114265;27;20026;-86
2021/03/05 00:05:43;;;;;;;80.63;36.80;;;;;;;5.55;63.70;97277.28;5106408;28;20443;-85
2021/03/05 00:08:10;;;;;;;86.80;35.83;;;;;;;5.44;64.65;97277.78;5094390;28;20032;-85
2021/03/05 00:10:38;;;;;;;74.18;31.38;;;;;;;5.41;64.82;97269.13;5126841;27;20090;-85
2021/03/05 00:13:04;;;;;;;62.30;25.05;;;;;;;5.26;65.32;97269.81;5120245;27;20052;-86
2021/03/05 00:15:34;;;;;;;49.67;23.35;;;;;;;5.10;65.33;97261.69;5111190;28;20466;-86
2021/03/05 00:18:00;;;;;;;55.15;22.52;;;;;;;5.12;65.00;97269.56;5093485;28;20019;-86
2021/03/05 00:20:27;;;;;;;53.50;23.92;;;;;;;4.96;65.36;97264.09;5110597;28;20034;-86
2021/03/05 00:22:53;;;;;;;56.13;24.85;;;;;;;5.11;65.55;97278.44;5111916;28;20027;-85
2021/03/05 00:25:19;;;;;;;49.05;21.48;;;;;;;5.01;65.06;97261.25;5114283;27;20066;-85
2021/03/05 00:27:45;;;;;;;58.42;23.30;;;;;;;5.00;66.37;97270.97;5097278;28;20043;-86
2021/03/05 00:30:11;;;;;;;50.60;20.27;;;;;;;4.89;66.53;97266.16;5093648;28;20035;-86
2021/03/05 00:32:37;;;;;;;43.85;18.73;;;;;;;4.84;65.28;97254.91;5093310;28;20031;-86
2021/03/05 00:35:06;;;;;;;47.88;20.38;;;;;;;4.92;64.94;97251.94;5119185;27;20031;-86
2021/03/05 00:37:31;;;;;;;47.72;21.67;;;;;;;5.00;64.00;97251.56;5108500;28;20034;-86
2021/03/05 00:39:57;;;;;;;50.15;21.65;;;;;;;5.11;64.89;97254.59;5104187;28;20024;-86
2021/03/05 00:42:22;;;;;;;51.17;21.27;;;;;;;5.02;66.02;97258.50;5093653;28;20027;-85
2021/03/05 00:44:48;;;;;;;46.50;19.55;;;;;;;4.92;66.75;97265.19;5127832;28;20042;-86
2021/03/05 00:47:13;;;;;;;51.10;21.13;;;;;;;4.83;65.77;97255.81;5110206;28;20121;-86
2021/03/05 00:49:39;;;;;;;47.97;20.90;;;;;;;4.79;66.14;97250.75;5110912;28;20063;-85
2021/03/05 00:52:05;;;;;;;54.60;22.02;;;;;;;4.87;65.90;97249.47;5095594;28;20118;-85
2021/03/05 00:54:31;;;;;;;44.08;21.33;;;;;;;4.81;65.40;97239.13;5108075;28;20128;-84
2021/03/05 00:56:56;;;;;;;50.83;23.42;;;;;;;4.91;65.48;97248.41;5119691;28;20027;-84
2021/03/05 00:59:22;;;;;;;47.03;22.80;;;;;;;4.86;66.07;97244.25;5105731;28;20050;-85
2021/03/05 01:01:48;;;;;;;54.85;26.48;;;;;;;4.86;65.14;97239.78;5113773;28;20118;-86
2021/03/05 01:04:13;;;;;;;59.08;24.85;;;;;;;5.05;64.02;97246.91;5113720;28;20446;-86
2021/03/05 01:06:39;;;;;;;43.10;20.38;;;;;;;5.19;60.35;97240.06;5110193;28;20452;-86
2021/03/05 01:09:06;;;;;;;51.83;24.30;;;;;;;5.21;63.51;97242.66;5103395;28;20153;-85
2021/03/05 01:11:32;;;;;;;51.08;23.35;;;;;;;5.21;63.61;97237.34;5113573;28;20030;-86
2021/03/05 01:13:58;;;;;;;46.85;23.23;;;;;;;5.28;63.35;97244.97;5113487;28;20034;-85
2021/03/05 01:16:24;;;;;;;31.33;13.55;;;;;;;5.19;62.14;97240.06;5113419;28;20455;-86
2021/03/05 01:18:50;;;;;;;47.35;20.55;;;;;;;5.33;63.10;97248.25;5122710;28;20035;-86
2021/03/05 01:21:15;;;;;;;43.60;19.70;;;;;;;5.27;61.35;97243.22;5110235;28;20113;-85
2021/03/05 01:23:41;;;;;;;47.45;19.88;;;;;;;5.39;60.16;97247.97;5110389;28;20482;-86
2021/03/05 01:26:09;;;;;;;34.17;15.93;;;;;;;5.46;59.28;97235.28;5111326;28;20027;-86
2021/03/05 01:28:35;;;;;;;25.25;12.90;;;;;;;5.60;54.93;97230.19;5108466;28;20402;-86
2021/03/05 01:31:01;;;;;;;29.92;16.00;;;;;;;5.66;58.65;97240.50;5109749;28;20031;-85
2021/03/05 01:33:26;;;;;;;60.72;19.40;;;;;;;5.52;59.61;97242.94;5093194;28;20483;-86
2021/03/05 01:35:52;;;;;;;51.10;19.77;;;;;;;5.28;60.07;97242.31;5100755;28;20506;-85
2021/03/05 01:38:17;;;;;;;48.67;17.63;;;;;;;5.27;61.70;97252.97;5130348;28;20410;-84
2021/03/05 01:40:45;;;;;;;49.63;15.27;;;;;;;5.14;60.13;97241.19;5105430;28;20031;-85
2021/03/05 01:43:13;;;;;;;41.40;14.38;;;;;;;5.10;59.04;97240.50;5094852;28;20028;-85
2021/03/05 01:45:39;;;;;;;42.67;14.48;;;;;;;5.08;60.25;97239.69;5110821;27;20455;-85
2021/03/05 01:48:17;;;;;;;42.58;16.35;;;;;;;5.12;60.66;97237.75;5134450;27;20039;-85
2021/03/05 01:51:21;;;;;;;58.97;18.17;;;;;;;5.15;60.57;97256.19;5117610;27;20019;-85
2021/03/05 01:53:47;;;;;;;40.17;15.55;;;;;;;5.03;60.55;97254.94;5096732;28;20459;-85
2021/03/05 01:56:41;;;;;;;40.67;16.20;;;;;;;4.95;61.72;97259.75;5098083;27;20091;-86
2021/03/05 01:59:09;;;;;;;36.55;14.82;;;;;;;4.92;60.85;97247.47;5116821;27;20035;-85
2021/03/05 02:01:35;;;;;;;38.42;15.32;;;;;;;4.80;61.14;97249.78;5116510;27;20027;-86
2021/03/05 02:04:02;;;;;;;37.05;15.15;;;;;;;4.86;61.24;97258.31;5117355;27;20483;-83
2021/03/05 02:06:28;;;;;;;41.72;16.60;;;;;;;4.85;61.00;97264.59;5104800;28;20470;-85
2021/03/05 02:08:54;;;;;;;43.03;20.42;;;;;;;4.87;60.82;97254.75;5104065;27;20030;-86
2021/03/05 02:11:21;;;;;;;47.88;18.50;;;;;;;4.89;60.90;97263.50;5117223;27;20023;-85
2021/03/05 02:13:47;;;;;;;52.47;23.85;;;;;;;4.90;60.39;97259.94;5116829;27;20023;-85
2021/03/05 02:16:23;;;;;;;43.58;21.60;;;;;;;4.88;61.21;97268.88;5116151;27;20027;-85
2021/03/05 02:19:07;;;;;;;49.63;23.38;;;;;;;4.84;61.19;97254.91;5116656;27;20029;-86
2021/03/05 02:22:06;;;;;;;38.15;19.38;;;;;;;4.82;62.11;97270.00;5133600;27;20121;-85
2021/03/05 02:24:52;;;;;;;50.97;24.33;;;;;;;4.76;61.39;97257.03;5113066;28;20542;-86
2021/03/05 02:27:39;;;;;;;65.65;31.98;;;;;;;4.89;60.73;97279.41;5112825;27;20525;-86
2021/03/05 02:30:20;;;;;;;49.60;25.88;;;;;;;4.88;60.78;97274.19;5112789;28;20042;-86
2021/03/05 02:33:24;;;;;;;54.10;22.33;;;;;;;4.91;58.63;97269.59;5126377;27;20066;-86
2021/03/05 02:35:50;;;;;;;31.70;16.08;;;;;;;4.87;57.09;97260.06;5038541;28;20590;-86
2021/03/05 02:38:18;;;;;;;33.20;16.05;;;;;;;4.90;56.42;97269.66;5112938;28;20036;-85
2021/03/05 02:40:45;;;;;;;29.52;15.60;;;;;;;5.01;56.42;97259.47;5095687;28;20031;-86
2021/03/05 02:43:13;;;;;;;30.25;15.10;;;;;;;5.03;55.52;97262.91;5095489;28;20397;-85
2021/03/05 02:45:40;;;;;;;40.42;16.30;;;;;;;4.81;60.32;97270.06;5095820;28;20038;-87
2021/03/05 02:48:36;;;;;;;38.78;15.10;;;;;;;4.52;62.07;97268.69;5104018;27;20123;-86
2021/03/05 02:51:04;;;;;;;38.95;14.85;;;;;;;4.42;61.65;97266.47;5086793;28;20067;-85
2021/03/05 02:53:30;;;;;;;31.27;13.65;;;;;;;4.40;63.05;97278.94;5098718;27;20062;-86
2021/03/05 02:56:00;;;;;;;25.73;10.68;;;;;;;4.36;59.95;97275.56;5116584;27;20027;-84
2021/03/05 02:58:27;;;;;;;30.75;12.18;;;;;;;4.40;60.92;97269.19;5104587;28;20539;-86
2021/03/05 03:00:54;;;;;;;33.80;12.32;;;;;;;4.39;61.66;97272.78;5095425;28;20039;-84
2021/03/05 03:03:20;;;;;;;29.63;12.15;;;;;;;4.36;61.90;97263.19;5095507;28;20038;-85
2021/03/05 03:05:47;;;;;;;29.75;11.82;;;;;;;4.33;61.27;97268.59;5108721;27;20031;-86
2021/03/05 03:08:12;;;;;;;19.05;8.68;;;;;;;4.40;56.27;97252.47;5115640;27;20466;-86
2021/03/05 03:10:38;;;;;;;19.30;8.98;;;;;;;4.64;56.76;97262.00;5112123;28;20059;-86
2021/03/05 03:13:04;;;;;;;21.92;9.95;;;;;;;4.95;57.24;97264.19;5104983;27;20031;-86
2021/03/05 03:15:31;;;;;;;25.50;11.43;;;;;;;4.96;57.58;97264.09;5115816;27;20398;-85
2021/03/05 03:17:58;;;;;;;30.50;13.18;;;;;;;4.93;58.28;97272.19;5109402;28;20031;-84
2021/03/05 03:20:25;;;;;;;28.08;12.85;;;;;;;4.78;59.38;97271.06;5105178;27;20096;-85
2021/03/05 03:22:51;;;;;;;40.95;17.50;;;;;;;4.67;56.49;97273.34;5110029;28;20069;-85
2021/03/05 03:25:17;;;;;;;43.67;15.57;;;;;;;4.76;56.52;97277.38;5095219;27;20488;-85
2021/03/05 03:27:44;;;;;;;36.47;14.80;;;;;;;4.89;55.75;97284.69;5111054;28;20521;-85
2021/03/05 03:30:14;;;;;;;34.80;15.82;;;;;;;4.88;57.00;97280.34;5120199;27;20067;-86
2021/03/05 03:32:41;;;;;;;32.33;14.38;;;;;;;4.91;54.34;97285.50;5124129;27;20038;-85
2021/03/05 03:35:08;;;;;;;30.00;13.02;;;;;;;4.96;53.22;97281.78;5107021;27;20057;-86
2021/03/05 03:37:35;;;;;;;35.28;17.17;;;;;;;5.01;55.16;97288.63;5095419;28;20159;-86
2021/03/05 03:40:04;;;;;;;40.60;19.58;;;;;;;4.91;55.69;97279.34;5101916;27;20035;-85
2021/03/05 03:42:30;;;;;;;35.10;17.02;;;;;;;4.97;54.59;97286.16;5132853;27;20060;-85
2021/03/05 03:44:56;;;;;;;42.88;17.85;;;;;;;4.91;56.30;97288.16;5118213;27;20045;-86
2021/03/05 03:47:22;;;;;;;42.78;18.65;;;;;;;4.68;58.22;97284.75;5094344;28;20055;-85
2021/03/05 03:49:56;;;;;;;44.53;18.25;;;;;;;4.44;59.42;97285.81;5102800;28;20086;-87
2021/03/05 03:52:37;;;;;;;41.25;17.23;;;;;;;4.24;60.02;97284.00;5103634;27;20055;-86
2021/03/05 03:55:04;;;;;;;38.83;14.57;;;;;;;4.05;62.21;97293.59;5114602;27;20031;-87
2021/03/05 03:57:30;;;;;;;29.00;12.93;;;;;;;3.93;65.40;97287.03;5121558;27;20049;-87
2021/03/05 03:59:57;;;;;;;32.85;14.15;;;;;;;3.79;63.58;97278.75;5095939;28;20031;-87
2021/03/05 04:02:27;;;;;;;32.90;13.85;;;;;;;3.65;63.04;97271.38;5097813;28;20031;-88
2021/03/05 04:04:54;;;;;;;35.28;13.52;;;;;;;3.67;63.25;97288.03;5127027;27;20023;-87
2021/03/05 04:07:20;;;;;;;36.70;14.90;;;;;;;3.71;63.88;97286.16;5114275;27;20123;-87
2021/03/05 04:09:46;;;;;;;32.08;14.27;;;;;;;3.68;65.02;97283.63;5097544;28;20063;-87
2021/03/05 04:12:12;;;;;;;62.03;25.50;;;;;;;3.65;62.93;97287.25;5127956;27;20489;-87
2021/03/05 04:14:37;;;;;;;92.53;45.45;;;;;;;3.77;61.26;97281.47;5115701;27;20525;-87
2021/03/05 04:17:03;;;;;;;118.72;54.05;;;;;;;3.91;60.71;97290.66;5114511;27;20054;-86
2021/03/05 04:19:29;;;;;;;110.93;52.42;;;;;;;3.95;61.04;97276.38;5113556;27;20038;-86
2021/03/05 04:21:54;;;;;;;75.53;33.90;;;;;;;4.04;60.08;97276.00;5111406;28;20416;-88
2021/03/05 04:24:20;;;;;;;53.88;24.30;;;;;;;4.07;60.17;97291.75;5110785;27;20390;-87
2021/03/05 04:26:46;;;;;;;60.25;27.42;;;;;;;4.09;58.93;97288.13;5128067;27;20160;-87
2021/03/05 04:29:12;;;;;;;45.25;21.45;;;;;;;4.05;59.97;97293.59;5109681;28;20019;-87
2021/03/05 04:31:37;;;;;;;31.90;14.32;;;;;;;3.88;61.08;97288.16;5112055;28;20030;-85
2021/03/05 04:34:03;;;;;;;44.42;17.40;;;;;;;3.80;62.02;97284.00;5093702;28;20160;-86
2021/03/05 04:36:29;;;;;;;50.78;21.30;;;;;;;3.74;62.20;97278.97;5110798;28;20057;-88
2021/03/05 04:38:54;;;;;;;99.93;35.80;;;;;;;3.77;62.48;97283.25;5106767;28;20027;-86
2021/03/05 04:41:20;;;;;;;67.75;24.42;;;;;;;3.75;61.79;97283.31;5131093;28;20466;-86
2021/03/05 04:43:46;;;;;;;35.70;15.70;;;;;;;3.69;62.96;97280.06;5121301;27;20030;-87
2021/03/05 04:46:11;;;;;;;45.97;16.25;;;;;;;3.66;63.12;97296.06;5093826;28;20020;-86
2021/03/05 04:48:37;;;;;;;41.42;17.15;;;;;;;3.61;62.96;97295.34;5110385;28;20088;-86
2021/03/05 04:51:02;;;;;;;42.45;13.75;;;;;;;3.55;62.74;97296.47;5102907;28;20471;-85
2021/03/05 04:53:28;;;;;;;37.17;13.65;;;;;;;3.49;62.50;97286.13;5094727;28;20546;-87
2021/03/05 04:55:53;;;;;;;33.33;13.13;;;;;;;3.59;62.97;97295.44;5094222;28;20050;-85
2021/03/05 04:58:19;;;;;;;12.82;6.43;;;;;;;3.73;52.73;97284.28;5101356;28;20440;-85
2021/03/05 05:00:44;;;;;;;35.95;16.10;;;;;;;3.94;58.56;97285.25;5113831;28;20027;-86
2021/03/05 05:03:10;;;;;;;38.65;16.23;;;;;;;4.03;59.43;97306.06;5116973;28;20024;-86
2021/03/05 05:05:37;;;;;;;44.67;15.65;;;;;;;4.05;60.67;97298.91;5093470;28;20525;-85
2021/03/05 05:08:06;;;;;;;48.10;18.63;;;;;;;3.97;60.76;97301.00;5098297;28;20474;-85
2021/03/05 05:10:31;;;;;;;54.05;19.13;;;;;;;4.02;61.18;97309.59;5113510;28;20018;-86
2021/03/05 05:12:57;;;;;;;50.95;22.25;;;;;;;3.95;61.07;97302.81;5118810;28;20531;-85
2021/03/05 05:15:22;;;;;;;75.07;29.88;;;;;;;4.00;61.38;97300.88;5101311;28;20509;-83
2021/03/05 05:17:48;;;;;;;66.18;25.25;;;;;;;3.97;62.13;97301.84;5102739;28;20024;-79
2021/03/05 05:20:14;;;;;;;61.80;26.10;;;;;;;4.06;62.21;97305.94;5121362;27;20020;-86
2021/03/05 05:22:40;;;;;;;55.33;22.40;;;;;;;4.21;61.50;97316.75;5096287;28;20043;-86
2021/03/05 05:25:07;;;;;;;48.65;20.25;;;;;;;4.38;59.66;97308.97;5129890;27;20023;-86
2021/03/05 05:27:33;;;;;;;41.25;18.10;;;;;;;4.91;58.44;97317.31;5095441;28;20038;-86
2021/03/05 05:29:58;;;;;;;55.28;21.55;;;;;;;6.11;55.00;97321.56;5095125;27;20478;-80
2021/03/05 05:32:24;;;;;;;74.95;25.85;;;;;;;7.40;50.90;97329.16;5130208;27;20404;-85
2021/03/05 05:34:49;;;;;;;64.72;26.30;;;;;;;8.31;49.30;97326.81;5108403;27;20033;-85
2021/03/05 05:37:15;;;;;;;75.72;30.98;;;;;;;9.23;46.35;97335.56;5117514;27;20027;-86
2021/03/05 05:39:40;;;;;;;79.93;29.60;;;;;;;9.88;43.99;97329.78;5116420;27;20122;-86
2021/03/05 05:42:07;;;;;;;98.32;32.72;;;;;;;9.75;44.36;97346.59;5118657;27;20019;-86
2021/03/05 05:44:33;;;;;;;120.60;38.30;;;;;;;9.43;44.65;97338.84;5109379;27;20501;-87
2021/03/05 05:47:01;;;;;;;93.18;32.20;;;;;;;9.54;44.68;97347.03;5105615;28;20100;-86
2021/03/05 05:49:28;;;;;;;123.18;50.78;;;;;;;10.27;42.41;97343.38;5105344;28;20098;-86
2021/03/05 05:51:57;;;;;;;123.35;49.75;;;;;;;10.41;41.98;97345.13;5122440;27;20027;-86
2021/03/05 05:54:23;;;;;;;94.70;37.65;;;;;;;10.17;42.99;97352.91;5120495;27;20367;-87
2021/03/05 05:56:51;;;;;;;103.97;40.65;;;;;;;10.02;42.98;97357.38;5099878;27;20406;-86
2021/03/05 05:59:16;;;;;;;85.82;34.97;;;;;;;9.85;43.13;97354.88;5104577;28;20092;-85
2021/03/05 06:01:42;;;;;;;81.15;31.88;;;;;;;9.92;42.83;97358.91;5114108;27;20024;-86
2021/03/05 06:04:08;;;;;;;130.30;51.17;;;;;;;10.06;41.96;97348.19;5112921;28;20115;-87
2021/03/05 06:06:37;;;;;;;135.43;52.25;;;;;;;10.94;40.69;97360.34;5104292;27;20097;-86
2021/03/05 06:09:03;;;;;;;134.63;57.92;;;;;;;11.13;40.44;97360.84;5133024;27;20024;-85
2021/03/05 06:11:35;;;;;;;137.35;62.65;;;;;;;11.70;38.36;97332.78;5111967;27;20118;-87
2021/03/05 06:14:06;;;;;;;135.80;66.28;;;;;;;12.54;37.10;97342.84;5131176;27;20055;-86
2021/03/05 06:16:32;;;;;;;118.43;52.90;;;;;;;13.51;35.60;97345.28;5096674;28;20457;-85
2021/03/05 06:18:59;;;;;;;215.85;92.82;;;;;;;14.47;34.05;97341.25;5124185;27;20030;-84
2021/03/05 06:21:35;;;;;;;178.05;97.78;;;;;;;16.66;30.17;97326.03;5102237;28;20027;-85
2021/03/05 06:24:03;;;;;;;145.82;57.22;;;;;;;18.14;27.47;97311.22;5130616;27;20091;-86
2021/03/05 06:26:28;;;;;;;120.88;61.15;;;;;;;18.98;25.59;97310.09;5104805;28;20076;-86
2021/03/05 06:29:04;;;;;;;142.32;62.45;;;;;;;19.32;26.71;97313.00;5097574;27;20031;-86
2021/03/05 06:31:30;;;;;;;173.65;69.72;;;;;;;21.11;24.29;97302.28;5113047;28;20027;-86
2021/03/05 06:34:00;;;;;;;163.35;70.18;;;;;;;21.16;23.83;97297.22;5114729;28;20045;-86
2021/03/05 06:36:26;;;;;;;124.70;66.60;;;;;;;21.83;22.83;97307.84;5098323;28;20032;-86
2021/03/05 06:38:52;;;;;;;88.88;48.08;;;;;;;21.59;22.73;97311.38;5099222;27;20081;-86
2021/03/05 06:41:25;;;;;;;133.30;71.57;;;;;;;23.05;22.06;97308.41;5113522;28;20035;-85
2021/03/05 06:44:12;;;;;;;113.07;64.25;;;;;;;23.41;20.94;97303.28;5116070;27;20061;-86
2021/03/05 06:46:39;;;;;;;104.32;59.22;;;;;;;24.10;20.14;97291.25;5135193;27;20092;-87
2021/03/05 06:49:10;;;;;;;97.07;51.47;;;;;;;24.71;20.37;97293.72;5107001;28;20034;-87
2021/03/05 06:51:36;;;;;;;109.80;50.30;;;;;;;25.64;19.21;97280.13;5100478;28;20034;-87
2021/03/05 06:54:14;;;;;;;78.18;40.78;;;;;;;26.23;18.10;97294.41;5101935;27;20027;-87
2021/03/05 06:56:43;;;;;;;68.68;37.33;;;;;;;27.65;17.03;97292.84;5113017;27;20535;-86
2021/03/05 06:59:10;;;;;;;78.18;41.35;;;;;;;28.56;16.59;97292.06;5107111;28;20024;-86
2021/03/05 07:02:05;;;;;;;86.05;47.78;;;;;;;28.34;17.01;97283.19;5103999;27;20039;-86
2021/03/05 07:04:33;;;;;;;96.95;52.75;;;;;;;28.16;17.04;97283.00;5114476;28;20031;-88
2021/03/05 07:07:00;;;;;;;143.48;78.28;;;;;;;28.27;16.20;97281.53;5105506;27;20510;-87
2021/03/05 07:09:28;;;;;;;78.95;38.13;;;;;;;28.05;16.45;97278.13;5121457;27;20042;-88
2021/03/05 07:11:54;;;;;;;90.90;40.13;;;;;;;27.99;17.06;97290.78;5125220;27;20031;-88
2021/03/05 07:14:26;;;;;;;81.82;40.92;;;;;;;28.00;16.39;97292.47;5105631;27;20027;-88
2021/03/05 07:16:55;;;;;;;62.70;32.92;;;;;;;28.57;16.81;97279.16;5104124;28;20123;-87
2021/03/05 07:19:22;;;;;;;54.55;27.55;;;;;;;28.83;16.28;97276.34;5109541;28;20058;-87
2021/03/05 07:21:49;;;;;;;43.63;25.83;;;;;;;28.67;16.44;97282.34;5117778;27;20096;-87
2021/03/05 07:24:19;;;;;;;106.72;20.38;;;;;;;28.62;16.27;97273.84;5131888;27;20055;-88
2021/03/05 07:27:04;;;;;;;30.55;13.65;;;;;;;28.32;15.25;97279.81;5106022;28;20027;-87
2021/03/05 07:29:35;;;;;;;32.78;18.30;;;;;;;27.47;15.14;97260.47;5119585;27;20409;-87
2021/03/05 07:32:29;;;;;;;37.28;21.52;;;;;;;27.29;15.19;97274.75;5114135;28;20403;-87
2021/03/05 07:34:59;;;;;;;41.85;21.48;;;;;;;26.96;15.80;97273.78;5118145;28;20070;-86
2021/03/05 07:37:31;;;;;;;67.70;33.20;;;;;;;26.73;15.31;97270.47;5114025;27;20387;-87
2021/03/05 07:40:00;;;;;;;52.87;29.00;;;;;;;26.76;15.52;97273.63;5123221;27;20031;-87
2021/03/05 07:42:27;;;;;;;28.25;13.20;;;;;;;26.77;15.43;97271.75;5111496;28;20023;-86
2021/03/05 07:44:53;;;;;;;36.63;19.73;;;;;;;26.26;14.58;97273.97;5103606;27;20478;-86
2021/03/05 07:47:19;;;;;;;42.85;17.45;;;;;;;26.48;15.78;97266.53;5106879;27;20035;-86
2021/03/05 07:49:45;;;;;;;26.95;9.77;;;;;;;26.26;14.71;97252.88;5101550;28;20027;-86
2021/03/05 07:52:12;;;;;;;36.88;17.63;;;;;;;25.99;14.92;97250.94;5115570;27;20425;-86
2021/03/05 07:54:40;;;;;;;35.80;11.50;;;;;;;26.78;14.51;97259.72;5124314;27;20031;-86
2021/03/05 07:57:07;;;;;;;25.42;9.00;;;;;;;28.17;13.38;97251.69;5131618;27;20027;-85
2021/03/05 07:59:41;;;;;;;33.03;13.80;;;;;;;28.53;12.88;97249.28;5104510;27;20035;-90
2021/03/05 08:02:11;;;;;;;26.90;12.10;;;;;;;28.45;12.12;97233.03;5130338;27;20074;-88
2021/03/05 08:05:05;;;;;;;17.63;5.60;;;;;;;28.02;10.72;97222.66;5102670;28;20035;-88
2021/03/05 08:07:32;;;;;;;17.30;6.07;;;;;;;27.77;11.27;97209.56;5134392;27;20023;-88
2021/03/05 08:09:58;;;;;;;11.50;5.32;;;;;;;28.13;10.01;97214.63;5114498;28;20023;-87
2021/03/05 08:15:08;;;;;;;9.32;5.10;;;;;;;27.85;10.33;97200.22;5131036;27;20061;-89
2021/03/05 08:17:34;;;;;;;9.98;5.47;;;;;;;27.45;10.85;97202.97;5128927;27;20027;-89
2021/03/05 08:20:00;;;;;;;11.60;3.58;;;;;;;28.41;10.20;97195.13;5139646;27;20042;-88
2021/03/05 08:22:27;;;;;;;10.00;5.38;;;;;;;28.31;9.96;97195.56;5114837;27;20023;-89
2021/03/05 08:25:13;;;;;;;12.43;5.68;;;;;;;27.73;10.49;97199.19;5132953;27;20019;-90
2021/03/05 08:27:38;;;;;;;14.45;5.70;;;;;;;28.04;10.18;97193.03;5132571;27;20083;-90
2021/03/05 08:30:09;;;;;;;19.42;5.80;;;;;;;28.23;10.08;97193.06;5097957;28;20036;-90
2021/03/05 08:32:34;;;;;;;11.38;5.72;;;;;;;28.76;9.65;97203.94;5095607;28;20031;-90
2021/03/05 08:35:01;;;;;;;8.68;5.78;;;;;;;28.45;9.88;97190.88;5112204;28;20039;-89
2021/03/05 08:37:27;;;;;;;7.82;5.35;;;;;;;27.51;10.47;97181.19;5094901;28;20130;-90
2021/03/05 08:40:13;;;;;;;13.85;5.18;;;;;;;27.85;10.76;97183.72;5121551;28;20035;-90
2021/03/05 08:42:46;;;;;;;14.88;5.57;;;;;;;28.14;11.01;97194.34;5113125;28;20030;-88
2021/03/05 08:45:15;;;;;;;6.22;4.45;;;;;;;28.08;10.09;97172.34;5105032;28;20031;-92
2021/03/05 08:47:42;;;;;;;10.02;5.75;;;;;;;27.69;10.83;97173.16;5110283;28;20594;-91
2021/03/05 08:50:09;;;;;;;27.98;5.82;;;;;;;28.78;10.10;97180.63;5113184;28;20027;-90
2021/03/05 08:52:35;;;;;;;30.23;6.75;;;;;;;29.17;9.98;97182.34;5111939;28;20019;-89
2021/03/05 08:55:05;;;;;;;9.98;5.30;;;;;;;28.05;10.01;97162.59;5109662;27;20063;-85
2021/03/05 08:57:45;;;;;;;16.63;5.47;;;;;;;28.93;10.63;97170.19;5116072;27;20091;-87
2021/03/05 09:00:15;;;;;;;9.48;4.82;;;;;;;29.48;9.88;97168.59;5140640;27;20024;-86
2021/03/05 09:02:41;;;;;;;15.55;6.28;;;;;;;29.33;9.31;97162.56;5110513;28;20024;-88
2021/03/05 09:05:07;;;;;;;8.43;4.93;;;;;;;27.88;10.03;97155.81;5103116;28;20042;-87
2021/03/05 09:07:45;;;;;;;10.85;5.55;;;;;;;28.43;10.31;97159.97;5135747;27;20035;-87
2021/03/05 09:10:12;;;;;;;10.43;5.32;;;;;;;28.99;10.11;97155.53;5102932;27;20501;-86
2021/03/05 09:12:40;;;;;;;13.07;6.00;;;;;;;28.97;9.75;97143.88;5141058;27;20502;-87
2021/03/05 09:15:07;;;;;;;14.77;5.88;;;;;;;29.20;9.48;97140.56;5140629;27;20023;-87
2021/03/05 09:17:33;;;;;;;13.95;6.43;;;;;;;29.09;10.36;97138.53;5116388;27;20031;-87
2021/03/05 09:19:58;;;;;;;17.20;8.95;;;;;;;28.10;10.04;97143.53;5113999;28;20405;-88
2021/03/05 09:22:27;;;;;;;19.80;7.43;;;;;;;27.93;10.47;97134.03;5114927;28;20046;-88
2021/03/05 09:25:01;;;;;;;14.30;6.57;;;;;;;29.12;9.23;97140.81;5097892;28;20036;-88
2021/03/05 09:27:31;;;;;;;12.20;6.38;;;;;;;28.80;9.70;97123.41;5106244;28;20023;-88
2021/03/05 09:29:57;;;;;;;8.88;6.68;;;;;;;29.34;10.01;97133.94;5131318;27;20026;-86
2021/03/05 09:32:23;;;;;;;13.77;6.40;;;;;;;29.86;8.78;97138.19;5131112;27;20024;-87
2021/03/05 09:34:59;;;;;;;10.02;6.35;;;;;;;29.72;8.94;97121.97;5121997;28;20080;-88
2021/03/05 09:37:30;;;;;;;9.98;6.85;;;;;;;31.21;8.50;97122.41;5130411;27;20383;-87
2021/03/05 09:39:58;;;;;;;13.82;6.40;;;;;;;30.76;8.44;97124.72;5109031;28;20059;-88
2021/03/05 09:42:51;;;;;;;10.77;5.68;;;;;;;31.30;8.69;97129.28;5137665;27;20031;-87
2021/03/05 09:45:39;;;;;;;17.60;5.68;;;;;;;30.56;8.21;97124.94;5140255;27;20050;-88
2021/03/05 09:48:07;;;;;;;14.77;5.05;;;;;;;29.81;7.76;97117.84;5116151;28;20043;-87
2021/03/05 09:50:34;;;;;;;11.23;5.65;;;;;;;29.32;8.71;97115.91;5098886;28;20118;-86
2021/03/05 09:53:29;;;;;;;15.10;5.78;;;;;;;29.59;8.18;97115.47;5105309;28;20027;-87
2021/03/05 09:55:56;;;;;;;11.10;5.10;;;;;;;30.58;8.11;97120.03;5103474;28;20059;-87
2021/03/05 09:58:22;;;;;;;10.40;5.20;;;;;;;29.96;8.57;97119.19;5131850;27;20402;-86
2021/03/05 10:00:49;;;;;;;15.57;5.93;;;;;;;30.59;8.13;97119.81;5129867;27;20031;-86
2021/03/05 10:03:15;;;;;;;6.07;4.30;;;;;;;30.41;8.16;97114.28;5105352;27;20035;-86
2021/03/05 10:05:44;;;;;;;9.93;5.25;;;;;;;30.39;8.70;97112.84;5116463;27;20027;-87
2021/03/05 10:08:25;;;;;;;10.20;4.30;;;;;;;31.73;7.60;97115.22;5101152;28;20406;-87
2021/03/05 10:11:00;;;;;;;10.30;4.78;;;;;;;32.24;7.90;97115.34;5118509;27;20027;-87
2021/03/05 10:13:48;;;;;;;10.93;4.50;;;;;;;31.87;8.78;97108.38;5126624;27;20027;-87
2021/03/05 10:16:23;;;;;;;9.20;4.05;;;;;;;31.75;7.49;97100.03;5116716;27;20031;-87
2021/03/05 10:18:55;;;;;;;5.75;3.95;;;;;;;31.43;8.23;97093.13;5113424;28;20471;-85
2021/03/05 10:21:21;;;;;;;8.00;4.88;;;;;;;31.67;8.24;97095.72;5096718;27;20039;-85
2021/03/05 10:23:47;;;;;;;9.65;4.72;;;;;;;32.60;8.28;97104.03;5134064;27;20054;-88
2021/03/05 10:26:21;;;;;;;22.00;5.20;;;;;;;31.76;7.77;97098.13;5117716;27;20024;-88
2021/03/05 10:28:52;;;;;;;6.93;4.10;;;;;;;30.54;8.20;97069.97;5113558;28;20095;-85
2021/03/05 10:31:17;;;;;;;16.73;4.45;;;;;;;30.36;9.18;97089.28;5113352;28;20084;-86
2021/03/05 10:33:44;;;;;;;69.70;6.60;;;;;;;30.17;8.22;97090.34;5107901;27;20031;-87
2021/03/05 10:36:12;;;;;;;12.00;3.47;;;;;;;31.17;8.13;97072.25;5116794;27;20030;-87
2021/03/05 10:38:38;;;;;;;9.32;3.92;;;;;;;31.77;7.63;97061.09;5116425;27;20023;-87
2021/03/05 10:41:05;;;;;;;9.30;4.20;;;;;;;31.43;7.95;97071.00;5102755;28;20524;-87
2021/03/05 10:43:31;;;;;;;8.20;3.88;;;;;;;31.87;8.23;97077.94;5105673;27;20508;-87
2021/03/05 10:45:56;;;;;;;18.63;5.00;;;;;;;31.58;8.09;97060.34;5120070;27;20035;-87
2021/03/05 10:48:22;;;;;;;13.07;3.95;;;;;;;31.56;8.72;97068.06;5112980;27;20040;-84
2021/03/05 10:50:48;;;;;;;6.43;4.00;;;;;;;30.35;8.37;97051.69;5104455;28;20027;-86
2021/03/05 10:53:13;;;;;;;8.55;4.03;;;;;;;31.46;9.62;97063.09;5095978;28;20096;-86
2021/03/05 10:55:39;;;;;;;11.85;4.00;;;;;;;32.78;7.83;97064.19;5124792;27;20045;-86
2021/03/05 10:58:04;;;;;;;9.30;4.60;;;;;;;32.13;7.89;97058.06;5133242;27;20023;-87
2021/03/05 11:00:31;;;;;;;25.55;5.55;;;;;;;31.53;8.01;97047.22;5106589;28;20019;-87
2021/03/05 11:02:56;;;;;;;9.70;4.57;;;;;;;30.73;8.66;97032.09;5104173;28;20418;-86
2021/03/05 11:05:22;;;;;;;7.50;4.80;;;;;;;31.25;7.87;97044.28;5104797;28;20035;-87
2021/03/05 11:07:48;;;;;;;13.85;4.43;;;;;;;30.95;7.64;97024.97;5096510;28;20148;-86
2021/03/05 11:10:14;;;;;;;7.35;3.70;;;;;;;31.05;8.01;97024.41;5103918;27;20027;-85
2021/03/05 11:12:41;;;;;;;5.85;3.80;;;;;;;31.09;7.95;97025.63;5125750;27;20088;-87
2021/03/05 11:15:07;;;;;;;17.85;4.45;;;;;;;30.56;8.61;97022.75;5115845;27;20054;-87
2021/03/05 11:17:33;;;;;;;18.08;4.65;;;;;;;31.68;7.89;97027.41;5105850;27;20114;-86
2021/03/05 11:19:59;;;;;;;8.10;3.90;;;;;;;32.22;7.35;97021.47;5124072;27;20131;-86
2021/03/05 11:25:09;;;;;;;14.95;3.45;;;;;;;32.15;7.70;97011.59;5118895;27;20058;-86
2021/03/05 11:27:35;;;;;;;17.25;8.10;;;;;;;31.89;7.62;97010.19;5113244;27;20099;-86
2021/03/05 11:30:05;;;;;;;5.80;4.03;;;;;;;31.69;7.15;96993.97;5133069;27;20023;-87
2021/03/05 11:32:33;;;;;;;13.80;4.20;;;;;;;32.19;7.64;96999.81;5106818;28;20027;-85
2021/03/05 11:34:58;;;;;;;6.47;3.58;;;;;;;31.96;7.39;96987.94;5103993;28;20082;-87
2021/03/05 11:37:24;;;;;;;6.40;3.40;;;;;;;31.83;7.55;96986.25;5102828;27;20063;-86
2021/03/05 11:39:50;;;;;;;5.53;3.58;;;;;;;31.43;7.19;96977.84;5124197;27;20126;-86